sensor_id;sensor_type;location;lat;lon;timestamp;pressure;altitude;pressure_sealevel;temperature
64394;BMP280;50712;49.506;10.400;2023-03-01T00:00:00;98958.97;;;1.86
64394;BMP280;50712;49.506;10.400;2023-03-01T00:00:30;98960.88;;;1.86
64394;BMP280;50712;49.506;10.400;2023-03-01T00:01:05;98961.28;;;1.84
64394;BMP280;50712;49.506;10.400;2023-03-01T00:01:37;98957.03;;;1.83
64394;BMP280;50712;49.506;10.400;2023-03-01T00:02:07;98961.63;;;1.83
64394;BMP280;50712;49.506;10.400;2023-03-01T00:02:37;98960.09;;;1.82
64394;BMP280;50712;49.506;10.400;2023-03-01T00:03:08;98956.63;;;1.81
64394;BMP280;50712;49.506;10.400;2023-03-01T00:03:38;98956.97;;;1.80
64394;BMP280;50712;49.506;10.400;2023-03-01T00:04:08;98964.22;;;1.79
64394;BMP280;50712;49.506;10.400;2023-03-01T00:04:39;98960.00;;;1.78
64394;BMP280;50712;49.506;10.400;2023-03-01T00:05:09;98961.13;;;1.77
64394;BMP280;50712;49.506;10.400;2023-03-01T00:05:46;98963.81;;;1.77
64394;BMP280;50712;49.506;10.400;2023-03-01T00:06:18;98966.84;;;1.76
64394;BMP280;50712;49.506;10.400;2023-03-01T00:06:48;98960.72;;;1.75
64394;BMP280;50712;49.506;10.400;2023-03-01T00:07:19;98957.25;;;1.75
64394;BMP280;50712;49.506;10.400;2023-03-01T00:07:52;98958.38;;;1.74
64394;BMP280;50712;49.506;10.400;2023-03-01T00:08:23;98969.13;;;1.74
64394;BMP280;50712;49.506;10.400;2023-03-01T00:08:53;98960.28;;;1.73
64394;BMP280;50712;49.506;10.400;2023-03-01T00:09:24;98965.66;;;1.73
64394;BMP280;50712;49.506;10.400;2023-03-01T00:09:54;98967.56;;;1.73
64394;BMP280;50712;49.506;10.400;2023-03-01T00:10:25;98961.44;;;1.72
64394;BMP280;50712;49.506;10.400;2023-03-01T00:11:06;98969.50;;;1.72
64394;BMP280;50712;49.506;10.400;2023-03-01T00:11:38;98964.13;;;1.72
64394;BMP280;50712;49.506;10.400;2023-03-01T00:12:08;98960.28;;;1.73
64394;BMP280;50712;49.506;10.400;2023-03-01T00:12:39;98959.50;;;1.73
64394;BMP280;50712;49.506;10.400;2023-03-01T00:13:09;98962.19;;;1.73
64394;BMP280;50712;49.506;10.400;2023-03-01T00:13:40;98961.84;;;1.74
64394;BMP280;50712;49.506;10.400;2023-03-01T00:14:11;98957.59;;;1.73
64394;BMP280;50712;49.506;10.400;2023-03-01T00:14:42;98956.47;;;1.74
64394;BMP280;50712;49.506;10.400;2023-03-01T00:15:13;98955.69;;;1.74
64394;BMP280;50712;49.506;10.400;2023-03-01T00:15:43;98957.25;;;1.75
64394;BMP280;50712;49.506;10.400;2023-03-01T00:16:17;98954.19;;;1.76
64394;BMP280;50712;49.506;10.400;2023-03-01T00:16:49;98957.66;;;1.77
64394;BMP280;50712;49.506;10.400;2023-03-01T00:17:20;98953.84;;;1.78
64394;BMP280;50712;49.506;10.400;2023-03-01T00:17:50;98958.84;;;1.79
64394;BMP280;50712;49.506;10.400;2023-03-01T00:18:20;98959.22;;;1.78
64394;BMP280;50712;49.506;10.400;2023-03-01T00:18:53;98958.84;;;1.79
64394;BMP280;50712;49.506;10.400;2023-03-01T00:19:24;98962.31;;;1.80
64394;BMP280;50712;49.506;10.400;2023-03-01T00:19:54;98955.84;;;1.81
64394;BMP280;50712;49.506;10.400;2023-03-01T00:20:25;98957.41;;;1.82
64394;BMP280;50712;49.506;10.400;2023-03-01T00:20:55;98952.03;;;1.82
64394;BMP280;50712;49.506;10.400;2023-03-01T00:21:26;98949.34;;;1.82
64394;BMP280;50712;49.506;10.400;2023-03-01T00:21:57;98957.03;;;1.83
64394;BMP280;50712;49.506;10.400;2023-03-01T00:22:27;98958.59;;;1.84
64394;BMP280;50712;49.506;10.400;2023-03-01T00:22:58;98952.44;;;1.84
64394;BMP280;50712;49.506;10.400;2023-03-01T00:23:28;98954.75;;;1.85
64394;BMP280;50712;49.506;10.400;2023-03-01T00:23:59;98952.81;;;1.86
64394;BMP280;50712;49.506;10.400;2023-03-01T00:24:29;98954.75;;;1.85
64394;BMP280;50712;49.506;10.400;2023-03-01T00:25:00;98957.44;;;1.85
64394;BMP280;50712;49.506;10.400;2023-03-01T00:25:30;98958.19;;;1.86
64394;BMP280;50712;49.506;10.400;2023-03-01T00:26:01;98952.81;;;1.86
64394;BMP280;50712;49.506;10.400;2023-03-01T00:26:31;98956.69;;;1.85
64394;BMP280;50712;49.506;10.400;2023-03-01T00:27:02;98953.22;;;1.84
64394;BMP280;50712;49.506;10.400;2023-03-01T00:27:32;98954.34;;;1.83
64394;BMP280;50712;49.506;10.400;2023-03-01T00:28:03;98955.47;;;1.82
64394;BMP280;50712;49.506;10.400;2023-03-01T00:28:33;98952.78;;;1.82
64394;BMP280;50712;49.506;10.400;2023-03-01T00:29:03;98949.34;;;1.82
64394;BMP280;50712;49.506;10.400;2023-03-01T00:29:34;98953.94;;;1.81
64394;BMP280;50712;49.506;10.400;2023-03-01T00:30:04;98949.34;;;1.82
64394;BMP280;50712;49.506;10.400;2023-03-01T00:30:35;98945.88;;;1.81
64394;BMP280;50712;49.506;10.400;2023-03-01T00:31:09;98947.78;;;1.81
64394;BMP280;50712;49.506;10.400;2023-03-01T00:31:42;98951.59;;;1.80
64394;BMP280;50712;49.506;10.400;2023-03-01T00:32:12;98948.09;;;1.79
64394;BMP280;50712;49.506;10.400;2023-03-01T00:32:42;98953.47;;;1.79
64394;BMP280;50712;49.506;10.400;2023-03-01T00:33:13;98950.03;;;1.79
64394;BMP280;50712;49.506;10.400;2023-03-01T00:33:43;98946.22;;;1.80
64394;BMP280;50712;49.506;10.400;2023-03-01T00:34:15;98953.47;;;1.79
64394;BMP280;50712;49.506;10.400;2023-03-01T00:34:45;98950.81;;;1.79
64394;BMP280;50712;49.506;10.400;2023-03-01T00:35:24;98952.69;;;1.79
64394;BMP280;50712;49.506;10.400;2023-03-01T00:35:54;98942.31;;;1.77
64394;BMP280;50712;49.506;10.400;2023-03-01T00:36:28;98957.66;;;1.77
64394;BMP280;50712;49.506;10.400;2023-03-01T00:37:01;98954.19;;;1.76
64394;BMP280;50712;49.506;10.400;2023-03-01T00:37:35;98952.66;;;1.75
64394;BMP280;50712;49.506;10.400;2023-03-01T00:38:05;98952.66;;;1.75
64394;BMP280;50712;49.506;10.400;2023-03-01T00:38:39;98949.53;;;1.73
64394;BMP280;50712;49.506;10.400;2023-03-01T00:39:12;98951.88;;;1.75
64394;BMP280;50712;49.506;10.400;2023-03-01T00:39:46;98948.41;;;1.74
64394;BMP280;50712;49.506;10.400;2023-03-01T00:40:17;98949.53;;;1.73
64394;BMP280;50712;49.506;10.400;2023-03-01T00:40:47;98948.00;;;1.72
64394;BMP280;50712;49.506;10.400;2023-03-01T00:41:18;98948.34;;;1.71
64394;BMP280;50712;49.506;10.400;2023-03-01T00:41:49;98954.50;;;1.71
64394;BMP280;50712;49.506;10.400;2023-03-01T00:42:20;98950.25;;;1.70
64394;BMP280;50712;49.506;10.400;2023-03-01T00:42:52;98951.41;;;1.69
64394;BMP280;50712;49.506;10.400;2023-03-01T00:43:22;98952.53;;;1.68
64394;BMP280;50712;49.506;10.400;2023-03-01T00:43:52;98950.63;;;1.69
64394;BMP280;50712;49.506;10.400;2023-03-01T00:44:23;98950.19;;;1.67
64394;BMP280;50712;49.506;10.400;2023-03-01T00:44:54;98962.50;;;1.68
64394;BMP280;50712;49.506;10.400;2023-03-01T00:45:24;98949.41;;;1.66
64394;BMP280;50712;49.506;10.400;2023-03-01T00:45:55;98950.56;;;1.65
64394;BMP280;50712;49.506;10.400;2023-03-01T00:46:26;98955.94;;;1.65
64394;BMP280;50712;49.506;10.400;2023-03-01T00:46:57;98959.72;;;1.64
64394;BMP280;50712;49.506;10.400;2023-03-01T00:47:28;98958.94;;;1.63
64394;BMP280;50712;49.506;10.400;2023-03-01T00:47:59;98952.81;;;1.63
64394;BMP280;50712;49.506;10.400;2023-03-01T00:48:29;98956.63;;;1.62
64394;BMP280;50712;49.506;10.400;2023-03-01T00:49:00;98951.25;;;1.62
64394;BMP280;50712;49.506;10.400;2023-03-01T00:49:32;98957.41;;;1.62
64394;BMP280;50712;49.506;10.400;2023-03-01T00:50:02;98949.69;;;1.61
64394;BMP280;50712;49.506;10.400;2023-03-01T00:50:32;98950.47;;;1.61
64394;BMP280;50712;49.506;10.400;2023-03-01T00:51:43;98947.81;;;1.61
64394;BMP280;50712;49.506;10.400;2023-03-01T00:52:13;98953.16;;;1.61
64394;BMP280;50712;49.506;10.400;2023-03-01T00:52:44;98945.13;;;1.61
64394;BMP280;50712;49.506;10.400;2023-03-01T00:53:15;98945.13;;;1.61
64394;BMP280;50712;49.506;10.400;2023-03-01T00:53:45;98941.66;;;1.61
64394;BMP280;50712;49.506;10.400;2023-03-01T00:54:16;98945.13;;;1.61
64394;BMP280;50712;49.506;10.400;2023-03-01T00:54:46;98942.44;;;1.61
64394;BMP280;50712;49.506;10.400;2023-03-01T00:55:17;98948.59;;;1.62
64394;BMP280;50712;49.506;10.400;2023-03-01T00:55:47;98947.81;;;1.61
64394;BMP280;50712;49.506;10.400;2023-03-01T00:56:18;98944.00;;;1.62
64394;BMP280;50712;49.506;10.400;2023-03-01T00:56:48;98948.59;;;1.62
64394;BMP280;50712;49.506;10.400;2023-03-01T00:57:18;98942.84;;;1.63
64394;BMP280;50712;49.506;10.400;2023-03-01T00:57:49;98947.44;;;1.63
64394;BMP280;50712;49.506;10.400;2023-03-01T00:58:19;98941.31;;;1.62
64394;BMP280;50712;49.506;10.400;2023-03-01T00:58:49;98939.38;;;1.63
64394;BMP280;50712;49.506;10.400;2023-03-01T00:59:20;98941.31;;;1.62
64394;BMP280;50712;49.506;10.400;2023-03-01T00:59:51;98952.38;;;1.61
64394;BMP280;50712;49.506;10.400;2023-03-01T01:00:22;98936.28;;;1.61
64394;BMP280;50712;49.506;10.400;2023-03-01T01:00:52;98952.38;;;1.61
64394;BMP280;50712;49.506;10.400;2023-03-01T01:01:24;98942.00;;;1.59
64394;BMP280;50712;49.506;10.400;2023-03-01T01:01:59;98942.78;;;1.60
64394;BMP280;50712;49.506;10.400;2023-03-01T01:02:31;98939.34;;;1.59
64394;BMP280;50712;49.506;10.400;2023-03-01T01:03:02;98940.88;;;1.60
64394;BMP280;50712;49.506;10.400;2023-03-01T01:03:34;98942.00;;;1.59
64394;BMP280;50712;49.506;10.400;2023-03-01T01:04:06;98947.38;;;1.59
64394;BMP280;50712;49.506;10.400;2023-03-01T01:04:41;98940.09;;;1.60
64394;BMP280;50712;49.506;10.400;2023-03-01T01:05:11;98942.00;;;1.59
64394;BMP280;50712;49.506;10.400;2023-03-01T01:05:42;98940.88;;;1.60
64394;BMP280;50712;49.506;10.400;2023-03-01T01:06:16;98938.53;;;1.59
64394;BMP280;50712;49.506;10.400;2023-03-01T01:06:50;98935.09;;;1.58
64394;BMP280;50712;49.506;10.400;2023-03-01T01:07:20;98938.53;;;1.59
64394;BMP280;50712;49.506;10.400;2023-03-01T01:07:51;98936.97;;;1.58
64394;BMP280;50712;49.506;10.400;2023-03-01T01:08:21;98934.31;;;1.58
64394;BMP280;50712;49.506;10.400;2023-03-01T01:08:52;98932.41;;;1.58
64394;BMP280;50712;49.506;10.400;2023-03-01T01:09:23;98935.88;;;1.59
64394;BMP280;50712;49.506;10.400;2023-03-01T01:09:54;98932.03;;;1.60
64394;BMP280;50712;49.506;10.400;2023-03-01T01:10:24;98931.28;;;1.59
64394;BMP280;50712;49.506;10.400;2023-03-01T01:10:55;98937.84;;;1.62
64394;BMP280;50712;49.506;10.400;2023-03-01T01:11:26;98931.69;;;1.61
64394;BMP280;50712;49.506;10.400;2023-03-01T01:11:58;98938.63;;;1.62
64394;BMP280;50712;49.506;10.400;2023-03-01T01:12:28;98932.88;;;1.64
64394;BMP280;50712;49.506;10.400;2023-03-01T01:12:59;98929.84;;;1.66
64394;BMP280;50712;49.506;10.400;2023-03-01T01:13:29;98924.47;;;1.66
64394;BMP280;50712;49.506;10.400;2023-03-01T01:13:59;98927.56;;;1.68
64394;BMP280;50712;49.506;10.400;2023-03-01T01:14:30;98925.66;;;1.68
64394;BMP280;50712;49.506;10.400;2023-03-01T01:15:00;98929.91;;;1.69
64394;BMP280;50712;49.506;10.400;2023-03-01T01:15:34;98918.78;;;1.71
64394;BMP280;50712;49.506;10.400;2023-03-01T01:16:05;98923.03;;;1.72
64394;BMP280;50712;49.506;10.400;2023-03-01T01:16:36;98925.75;;;1.72
64394;BMP280;50712;49.506;10.400;2023-03-01T01:17:06;98920.78;;;1.74
64394;BMP280;50712;49.506;10.400;2023-03-01T01:17:37;98924.25;;;1.74
64394;BMP280;50712;49.506;10.400;2023-03-01T01:18:07;98915.81;;;1.76
64394;BMP280;50712;49.506;10.400;2023-03-01T01:18:38;98922.75;;;1.77
64394;BMP280;50712;49.506;10.400;2023-03-01T01:19:09;98918.16;;;1.77
64394;BMP280;50712;49.506;10.400;2023-03-01T01:19:41;98922.41;;;1.78
64394;BMP280;50712;49.506;10.400;2023-03-01T01:20:11;98917.03;;;1.78
64394;BMP280;50712;49.506;10.400;2023-03-01T01:20:42;98920.47;;;1.79
64394;BMP280;50712;49.506;10.400;2023-03-01T01:21:14;98912.06;;;1.80
64394;BMP280;50712;49.506;10.400;2023-03-01T01:21:46;98915.88;;;1.79
64394;BMP280;50712;49.506;10.400;2023-03-01T01:22:18;98918.22;;;1.81
64394;BMP280;50712;49.506;10.400;2023-03-01T01:22:48;98915.53;;;1.81
64394;BMP280;50712;49.506;10.400;2023-03-01T01:23:18;98913.63;;;1.81
64394;BMP280;50712;49.506;10.400;2023-03-01T01:23:50;98916.31;;;1.81
64394;BMP280;50712;49.506;10.400;2023-03-01T01:24:21;98917.84;;;1.82
64394;BMP280;50712;49.506;10.400;2023-03-01T01:24:51;98918.63;;;1.83
64394;BMP280;50712;49.506;10.400;2023-03-01T01:25:21;98915.94;;;1.83
64394;BMP280;50712;49.506;10.400;2023-03-01T01:25:54;98910.56;;;1.83
64394;BMP280;50712;49.506;10.400;2023-03-01T01:26:26;98915.59;;;1.84
64394;BMP280;50712;49.506;10.400;2023-03-01T01:26:58;98913.69;;;1.85
64394;BMP280;50712;49.506;10.400;2023-03-01T01:27:29;98912.91;;;1.84
64394;BMP280;50712;49.506;10.400;2023-03-01T01:27:59;98912.91;;;1.84
64394;BMP280;50712;49.506;10.400;2023-03-01T01:28:30;98908.31;;;1.85
64394;BMP280;50712;49.506;10.400;2023-03-01T01:29:01;98909.06;;;1.85
64394;BMP280;50712;49.506;10.400;2023-03-01T01:29:33;98909.06;;;1.85
64394;BMP280;50712;49.506;10.400;2023-03-01T01:30:03;98912.50;;;1.86
64394;BMP280;50712;49.506;10.400;2023-03-01T01:30:34;98905.63;;;1.85
64394;BMP280;50712;49.506;10.400;2023-03-01T01:31:05;98901.00;;;1.85
64394;BMP280;50712;49.506;10.400;2023-03-01T01:31:37;98895.63;;;1.85
64394;BMP280;50712;49.506;10.400;2023-03-01T01:32:09;98898.31;;;1.85
64394;BMP280;50712;49.506;10.400;2023-03-01T01:32:39;98901.00;;;1.85
64394;BMP280;50712;49.506;10.400;2023-03-01T01:33:09;98900.25;;;1.85
64394;BMP280;50712;49.506;10.400;2023-03-01T01:33:40;98894.09;;;1.84
64394;BMP280;50712;49.506;10.400;2023-03-01T01:34:13;98896.00;;;1.84
64394;BMP280;50712;49.506;10.400;2023-03-01T01:34:48;98896.00;;;1.84
64394;BMP280;50712;49.506;10.400;2023-03-01T01:35:19;98894.88;;;1.85
64394;BMP280;50712;49.506;10.400;2023-03-01T01:35:49;98892.53;;;1.83
64394;BMP280;50712;49.506;10.400;2023-03-01T01:36:19;98892.53;;;1.83
64394;BMP280;50712;49.506;10.400;2023-03-01T01:36:51;98891.75;;;1.83
64394;BMP280;50712;49.506;10.400;2023-03-01T01:37:23;98886.38;;;1.83
64394;BMP280;50712;49.506;10.400;2023-03-01T01:38:01;98885.59;;;1.82
64394;BMP280;50712;49.506;10.400;2023-03-01T01:38:31;98882.91;;;1.82
64394;BMP280;50712;49.506;10.400;2023-03-01T01:39:02;98886.75;;;1.81
64394;BMP280;50712;49.506;10.400;2023-03-01T01:39:32;98885.59;;;1.82
64394;BMP280;50712;49.506;10.400;2023-03-01T01:40:03;98888.28;;;1.82
64394;BMP280;50712;49.506;10.400;2023-03-01T01:40:34;98887.53;;;1.82
64394;BMP280;50712;49.506;10.400;2023-03-01T01:41:04;98887.53;;;1.82
64394;BMP280;50712;49.506;10.400;2023-03-01T01:41:36;98878.69;;;1.81
64394;BMP280;50712;49.506;10.400;2023-03-01T01:42:08;98884.06;;;1.81
64394;BMP280;50712;49.506;10.400;2023-03-01T01:42:45;98886.75;;;1.81
64394;BMP280;50712;49.506;10.400;2023-03-01T01:45:15;98881.38;;;1.81
64394;BMP280;50712;49.506;10.400;2023-03-01T01:46:10;98879.47;;;1.82
64394;BMP280;50712;49.506;10.400;2023-03-01T01:46:45;98882.91;;;1.82
64394;BMP280;50712;49.506;10.400;2023-03-01T01:47:20;98884.84;;;1.82
64394;BMP280;50712;49.506;10.400;2023-03-01T01:47:53;98879.47;;;1.82
64394;BMP280;50712;49.506;10.400;2023-03-01T01:48:39;98879.81;;;1.80
64394;BMP280;50712;49.506;10.400;2023-03-01T01:49:24;98877.13;;;1.80
64394;BMP280;50712;49.506;10.400;2023-03-01T01:49:59;98880.94;;;1.79
64394;BMP280;50712;49.506;10.400;2023-03-01T01:50:29;98877.47;;;1.79
64394;BMP280;50712;49.506;10.400;2023-03-01T01:51:11;98874.03;;;1.78
64394;BMP280;50712;49.506;10.400;2023-03-01T01:51:47;98878.63;;;1.78
64394;BMP280;50712;49.506;10.400;2023-03-01T01:52:25;98874.38;;;1.77
64394;BMP280;50712;49.506;10.400;2023-03-01T01:52:59;98877.84;;;1.77
64394;BMP280;50712;49.506;10.400;2023-03-01T01:53:29;98874.38;;;1.77
64394;BMP280;50712;49.506;10.400;2023-03-01T01:54:00;98878.97;;;1.76
64394;BMP280;50712;49.506;10.400;2023-03-01T01:54:50;98878.97;;;1.76
64394;BMP280;50712;49.506;10.400;2023-03-01T01:55:23;98880.88;;;1.76
64394;BMP280;50712;49.506;10.400;2023-03-01T01:55:58;98874.75;;;1.75
64394;BMP280;50712;49.506;10.400;2023-03-01T01:56:31;98875.88;;;1.74
64394;BMP280;50712;49.506;10.400;2023-03-01T01:57:03;98870.50;;;1.74
64394;BMP280;50712;49.506;10.400;2023-03-01T01:57:40;98873.19;;;1.74
64394;BMP280;50712;49.506;10.400;2023-03-01T01:58:14;98875.88;;;1.74
64394;BMP280;50712;49.506;10.400;2023-03-01T01:58:47;98867.03;;;1.74
64394;BMP280;50712;49.506;10.400;2023-03-01T01:59:19;98870.50;;;1.74
64394;BMP280;50712;49.506;10.400;2023-03-01T01:59:55;98874.31;;;1.73
64394;BMP280;50712;49.506;10.400;2023-03-01T02:00:30;98870.84;;;1.73
64394;BMP280;50712;49.506;10.400;2023-03-01T02:01:00;98873.53;;;1.73
64394;BMP280;50712;49.506;10.400;2023-03-01T02:01:31;98878.16;;;1.72
64394;BMP280;50712;49.506;10.400;2023-03-01T02:02:02;98870.09;;;1.72
64394;BMP280;50712;49.506;10.400;2023-03-01T02:02:33;98874.69;;;1.72
64394;BMP280;50712;49.506;10.400;2023-03-01T02:03:11;98874.69;;;1.72
64394;BMP280;50712;49.506;10.400;2023-03-01T02:03:48;98876.59;;;1.71
64394;BMP280;50712;49.506;10.400;2023-03-01T02:04:18;98872.00;;;1.72
64394;BMP280;50712;49.506;10.400;2023-03-01T02:04:50;98873.13;;;1.71
64394;BMP280;50712;49.506;10.400;2023-03-01T02:05:28;98873.91;;;1.71
64394;BMP280;50712;49.506;10.400;2023-03-01T02:06:53;98873.13;;;1.71
64394;BMP280;50712;49.506;10.400;2023-03-01T02:07:29;98870.81;;;1.69
64394;BMP280;50712;49.506;10.400;2023-03-01T02:08:00;98874.63;;;1.68
64394;BMP280;50712;49.506;10.400;2023-03-01T02:08:31;98867.34;;;1.69
64394;BMP280;50712;49.506;10.400;2023-03-01T02:09:06;98867.69;;;1.67
64394;BMP280;50712;49.506;10.400;2023-03-01T02:09:44;98873.84;;;1.68
64394;BMP280;50712;49.506;10.400;2023-03-01T02:10:16;98861.56;;;1.67
64394;BMP280;50712;49.506;10.400;2023-03-01T02:10:48;98862.69;;;1.66
64394;BMP280;50712;49.506;10.400;2023-03-01T02:11:20;98864.59;;;1.65
64394;BMP280;50712;49.506;10.400;2023-03-01T02:11:52;98857.31;;;1.66
64394;BMP280;50712;49.506;10.400;2023-03-01T02:12:23;98856.56;;;1.65
64394;BMP280;50712;49.506;10.400;2023-03-01T02:12:55;98861.91;;;1.65
64394;BMP280;50712;49.506;10.400;2023-03-01T02:13:26;98857.69;;;1.64
64394;BMP280;50712;49.506;10.400;2023-03-01T02:13:58;98854.97;;;1.64
64394;BMP280;50712;49.506;10.400;2023-03-01T02:14:29;98860.34;;;1.64
64394;BMP280;50712;49.506;10.400;2023-03-01T02:14:59;98852.31;;;1.64
64394;BMP280;50712;49.506;10.400;2023-03-01T02:15:35;98861.47;;;1.63
64394;BMP280;50712;49.506;10.400;2023-03-01T02:16:09;98858.03;;;1.62
64394;BMP280;50712;49.506;10.400;2023-03-01T02:16:42;98860.72;;;1.62
64394;BMP280;50712;49.506;10.400;2023-03-01T02:17:14;98853.81;;;1.61
64394;BMP280;50712;49.506;10.400;2023-03-01T02:17:47;98858.38;;;1.61
64394;BMP280;50712;49.506;10.400;2023-03-01T02:18:18;98858.75;;;1.59
64394;BMP280;50712;49.506;10.400;2023-03-01T02:18:51;98859.50;;;1.60
64394;BMP280;50712;49.506;10.400;2023-03-01T02:19:28;98858.75;;;1.59
64394;BMP280;50712;49.506;10.400;2023-03-01T02:20:54;98854.50;;;1.58
64394;BMP280;50712;49.506;10.400;2023-03-01T02:22:29;98856.75;;;1.56
64394;BMP280;50712;49.506;10.400;2023-03-01T02:22:58;98848.28;;;1.54
64394;BMP280;50712;49.506;10.400;2023-03-01T02:23:30;98852.09;;;1.53
64394;BMP280;50712;49.506;10.400;2023-03-01T02:24:03;98854.03;;;1.53
64394;BMP280;50712;49.506;10.400;2023-03-01T02:25:52;98845.53;;;1.51
64394;BMP280;50712;49.506;10.400;2023-03-01T02:26:42;98845.53;;;1.51
64394;BMP280;50712;49.506;10.400;2023-03-01T02:27:18;98847.81;;;1.49
64394;BMP280;50712;49.506;10.400;2023-03-01T02:28:33;98839.34;;;1.47
64394;BMP280;50712;49.506;10.400;2023-03-01T02:29:06;98840.47;;;1.46
64394;BMP280;50712;49.506;10.400;2023-03-01T02:29:37;98833.56;;;1.45
64394;BMP280;50712;49.506;10.400;2023-03-01T02:30:07;98842.72;;;1.44
64394;BMP280;50712;49.506;10.400;2023-03-01T02:30:43;98836.22;;;1.45
64394;BMP280;50712;49.506;10.400;2023-03-01T02:31:33;98837.34;;;1.44
64394;BMP280;50712;49.506;10.400;2023-03-01T02:32:15;98837.72;;;1.42
64394;BMP280;50712;49.506;10.400;2023-03-01T02:32:55;98843.88;;;1.43
64394;BMP280;50712;49.506;10.400;2023-03-01T02:33:33;98841.19;;;1.43
64394;BMP280;50712;49.506;10.400;2023-03-01T02:34:06;98833.50;;;1.41
64394;BMP280;50712;49.506;10.400;2023-03-01T02:34:40;98839.63;;;1.42
64394;BMP280;50712;49.506;10.400;2023-03-01T02:35:12;98840.00;;;1.40
64394;BMP280;50712;49.506;10.400;2023-03-01T02:35:44;98840.75;;;1.41
64394;BMP280;50712;49.506;10.400;2023-03-01T02:36:18;98842.31;;;1.42
64394;BMP280;50712;49.506;10.400;2023-03-01T02:36:53;98842.69;;;1.40
64394;BMP280;50712;49.506;10.400;2023-03-01T02:37:27;98836.53;;;1.40
64394;BMP280;50712;49.506;10.400;2023-03-01T02:37:59;98840.00;;;1.40
64394;BMP280;50712;49.506;10.400;2023-03-01T02:38:31;98836.53;;;1.40
64394;BMP280;50712;49.506;10.400;2023-03-01T02:39:03;98836.53;;;1.40
64394;BMP280;50712;49.506;10.400;2023-03-01T02:39:39;98839.22;;;1.40
64394;BMP280;50712;49.506;10.400;2023-03-01T02:40:16;98833.06;;;1.39
64394;BMP280;50712;49.506;10.400;2023-03-01T02:40:49;98836.88;;;1.38
64394;BMP280;50712;49.506;10.400;2023-03-01T02:41:21;98838.78;;;1.38
64394;BMP280;50712;49.506;10.400;2023-03-01T02:41:53;98832.63;;;1.37
64394;BMP280;50712;49.506;10.400;2023-03-01T02:42:30;98832.63;;;1.37
64394;BMP280;50712;49.506;10.400;2023-03-01T02:43:06;98835.31;;;1.37
64394;BMP280;50712;49.506;10.400;2023-03-01T02:43:40;98831.88;;;1.37
64394;BMP280;50712;49.506;10.400;2023-03-01T02:44:10;98826.53;;;1.37
64394;BMP280;50712;49.506;10.400;2023-03-01T02:44:41;98826.53;;;1.37
64394;BMP280;50712;49.506;10.400;2023-03-01T02:45:11;98833.78;;;1.36
64394;BMP280;50712;49.506;10.400;2023-03-01T02:45:51;98826.53;;;1.37
64394;BMP280;50712;49.506;10.400;2023-03-01T02:46:24;98831.09;;;1.36
64394;BMP280;50712;49.506;10.400;2023-03-01T02:46:56;98831.88;;;1.37
64394;BMP280;50712;49.506;10.400;2023-03-01T02:47:28;98828.41;;;1.36
64394;BMP280;50712;49.506;10.400;2023-03-01T02:47:58;98824.97;;;1.36
64394;BMP280;50712;49.506;10.400;2023-03-01T02:48:47;98828.75;;;1.35
64394;BMP280;50712;49.506;10.400;2023-03-01T02:49:52;98823.00;;;1.33
64394;BMP280;50712;49.506;10.400;2023-03-01T02:51:04;98824.50;;;1.30
64394;BMP280;50712;49.506;10.400;2023-03-01T02:52:47;98821.03;;;1.30
64394;BMP280;50712;49.506;10.400;2023-03-01T02:54:28;98825.97;;;1.28
64394;BMP280;50712;49.506;10.400;2023-03-01T02:55:11;98819.06;;;1.27
64394;BMP280;50712;49.506;10.400;2023-03-01T02:55:43;98820.97;;;1.26
64394;BMP280;50712;49.506;10.400;2023-03-01T02:56:14;98820.19;;;1.26
64394;BMP280;50712;49.506;10.400;2023-03-01T02:56:45;98822.88;;;1.26
64394;BMP280;50712;49.506;10.400;2023-03-01T02:57:22;98826.34;;;1.26
64394;BMP280;50712;49.506;10.400;2023-03-01T02:57:55;98820.19;;;1.26
64394;BMP280;50712;49.506;10.400;2023-03-01T02:58:26;98824.78;;;1.25
64394;BMP280;50712;49.506;10.400;2023-03-01T02:58:57;98821.31;;;1.25
64394;BMP280;50712;49.506;10.400;2023-03-01T02:59:31;98818.63;;;1.25
64394;BMP280;50712;49.506;10.400;2023-03-01T03:00:14;98816.72;;;1.25
64394;BMP280;50712;49.506;10.400;2023-03-01T03:00:50;98818.63;;;1.25
64394;BMP280;50712;49.506;10.400;2023-03-01T03:01:21;98819.41;;;1.25
64394;BMP280;50712;49.506;10.400;2023-03-01T03:01:51;98815.94;;;1.25
64394;BMP280;50712;49.506;10.400;2023-03-01T03:02:23;98813.28;;;1.25
64394;BMP280;50712;49.506;10.400;2023-03-01T03:03:07;98815.94;;;1.25
64394;BMP280;50712;49.506;10.400;2023-03-01T03:03:37;98818.63;;;1.25
64394;BMP280;50712;49.506;10.400;2023-03-01T03:04:13;98815.19;;;1.24
64394;BMP280;50712;49.506;10.400;2023-03-01T03:04:52;98817.88;;;1.24
64394;BMP280;50712;49.506;10.400;2023-03-01T03:05:24;98812.53;;;1.24
64394;BMP280;50712;49.506;10.400;2023-03-01T03:05:59;98812.53;;;1.24
64394;BMP280;50712;49.506;10.400;2023-03-01T03:06:30;98812.53;;;1.24
64394;BMP280;50712;49.506;10.400;2023-03-01T03:07:00;98812.06;;;1.22
64394;BMP280;50712;49.506;10.400;2023-03-01T03:07:30;98815.53;;;1.23
64394;BMP280;50712;49.506;10.400;2023-03-01T03:08:02;98805.94;;;1.22
64394;BMP280;50712;49.506;10.400;2023-03-01T03:08:36;98812.06;;;1.22
64394;BMP280;50712;49.506;10.400;2023-03-01T03:09:06;98807.88;;;1.21
64394;BMP280;50712;49.506;10.400;2023-03-01T03:09:37;98807.09;;;1.21
64394;BMP280;50712;49.506;10.400;2023-03-01T03:10:12;98812.44;;;1.21
64394;BMP280;50712;49.506;10.400;2023-03-01T03:10:49;98805.53;;;1.20
64394;BMP280;50712;49.506;10.400;2023-03-01T03:11:20;98817.81;;;1.21
64394;BMP280;50712;49.506;10.400;2023-03-01T03:11:51;98810.88;;;1.20
64394;BMP280;50712;49.506;10.400;2023-03-01T03:12:21;98811.22;;;1.18
64394;BMP280;50712;49.506;10.400;2023-03-01T03:12:53;98808.91;;;1.17
64394;BMP280;50712;49.506;10.400;2023-03-01T03:13:25;98813.16;;;1.18
64394;BMP280;50712;49.506;10.400;2023-03-01T03:13:59;98811.59;;;1.17
64394;BMP280;50712;49.506;10.400;2023-03-01T03:14:29;98812.72;;;1.16
64394;BMP280;50712;49.506;10.400;2023-03-01T03:15:00;98805.81;;;1.15
64394;BMP280;50712;49.506;10.400;2023-03-01T03:15:30;98804.69;;;1.16
64394;BMP280;50712;49.506;10.400;2023-03-01T03:16:02;98806.56;;;1.15
64394;BMP280;50712;49.506;10.400;2023-03-01T03:16:32;98803.13;;;1.15
64394;BMP280;50712;49.506;10.400;2023-03-01T03:17:02;98807.72;;;1.14
64394;BMP280;50712;49.506;10.400;2023-03-01T03:17:36;98803.13;;;1.15